Flinterbirka — PHFQ — position and weather

sailwx.info

Track history (hours):
 
Tides and Currents Weather Stations Pressure Air Temp Water Temp Dewpoint Dewpoint Depression Visibility Wind Speed Wind Dir Waves Ship Positions

Flinterbirka

Last reported at 2014-Sep-22 02:26 UTC. Time now 2014-Sep-22 04:19 UTC.
Position N 37°50' E 024°23'.

Length 81 m; draft 5.3 m.

Type: Cargo ship. MMSI: 246525000.

Date/timePositionNaut miles runAvg speedWind from/ knotsBaromVisibWave heightAir tempDewpointWater temp
2014-Sep-22 02:26N 37°50' E 024°23'9 8.6
2014-Sep-22 01:22N 37°54' E 024°33'273 8.3
2014-Sep-20 16:32N 40°57' E 028°55'  
2014-Sep-13 09:29N 41°20' E 029°38'910.2
2014-Sep-13 08:33N 41°16' E 029°27'26 8.5
2014-Sep-13 05:27N 40°59' E 029°00'8 9.1
2014-Sep-13 04:33N 40°52' E 028°54'9 8.6
2014-Sep-13 03:31N 40°45' E 028°49'2 1.7
2014-Sep-13 02:28N 40°44' E 028°51'1 1.5
2014-Sep-13 01:33N 40°44' E 028°53'2 1.5
2014-Sep-13 00:32N 40°45' E 028°55'1 1.4
2014-Sep-12 23:32N 40°45' E 028°56'1 1.3
2014-Sep-12 22:33N 40°46' E 028°58'8 8.4
2014-Sep-12 21:32N 40°46' E 029°09'1110.7
2014-Sep-12 20:33N 40°45' E 029°23'  
Track history (hours):
 
Tides and Currents Weather Stations Pressure Air Temp Water Temp Dewpoint Dewpoint Depression Visibility Wind Speed Wind Dir Waves Ship Positions

Flinterbirka

Last reported at 2014-Sep-22 02:26 UTC. Time now 2014-Sep-22 04:19 UTC.
Position N 37°50' E 024°23'.

Length 81 m; draft 5.3 m.

Type: Cargo ship. MMSI: 246525000.

Date/timePositionNaut miles runAvg speedWind from/ knotsBaromVisibWave heightAir tempDewpointWater temp
2014-Sep-22 02:26N 37°50' E 024°23'9 8.6
2014-Sep-22 01:22N 37°54' E 024°33'273 8.3
2014-Sep-20 16:32N 40°57' E 028°55'  
2014-Sep-13 09:29N 41°20' E 029°38'910.2
2014-Sep-13 08:33N 41°16' E 029°27'26 8.5
2014-Sep-13 05:27N 40°59' E 029°00'8 9.1
2014-Sep-13 04:33N 40°52' E 028°54'9 8.6
2014-Sep-13 03:31N 40°45' E 028°49'2 1.7
2014-Sep-13 02:28N 40°44' E 028°51'1 1.5
2014-Sep-13 01:33N 40°44' E 028°53'2 1.5
2014-Sep-13 00:32N 40°45' E 028°55'1 1.4
2014-Sep-12 23:32N 40°45' E 028°56'1 1.3
2014-Sep-12 22:33N 40°46' E 028°58'8 8.4
2014-Sep-12 21:32N 40°46' E 029°09'1110.7
2014-Sep-12 20:33N 40°45' E 029°23'  

Dump ship's entire track history